Forestburg, Texas
Current Conditions -  °F | °C
As of 8:55 PM on Sunday 23 Nov 2014 (Local Time) from K0F2 Reporting Station
Scattered Clouds Scattered Clouds  
Wind Chill: 41°   Ceiling: Unl
Heat Index: 47°   Visibility: 10mi
Dew Point: 39°   Wind: 17mph
Humidity: 74%   Direction: 320°NW
Pressure: 29.77"   Gusts: NA
Location:  33.53°N, 97.56°W
Report Text: K0F2 240255Z AUTO 32015KT 10SM SCT090 09/04 A2977 RMK AO2 T00850041
Loading
Personal Weather Stations






























Interactive Weather Map New forecast layout! Learn more

10-Day Weather Forecast

Advertisements
Track Severe Weather on mobile